sensor_id;sensor_type;location;lat;lon;timestamp;pressure;altitude;pressure_sealevel;temperature;humidity
46087;BME280;31824;49.648;8.640;2023-06-24T00:01:44;101140.66;;;16.99;100.00
46087;BME280;31824;49.648;8.640;2023-06-24T00:04:47;101140.84;;;16.91;100.00
46087;BME280;31824;49.648;8.640;2023-06-24T00:07:51;101133.31;;;16.75;100.00
46087;BME280;31824;49.648;8.640;2023-06-24T00:11:24;101136.25;;;16.67;100.00
46087;BME280;31824;49.648;8.640;2023-06-24T00:14:28;101140.63;;;16.67;100.00
46087;BME280;31824;49.648;8.640;2023-06-24T00:17:31;101139.22;;;16.93;100.00
46087;BME280;31824;49.648;8.640;2023-06-24T00:20:40;101137.53;;;16.83;100.00
46087;BME280;31824;49.648;8.640;2023-06-24T00:23:48;101136.25;;;16.67;100.00
46087;BME280;31824;49.648;8.640;2023-06-24T00:26:53;101142.47;;;16.78;100.00
46087;BME280;31824;49.648;8.640;2023-06-24T00:29:59;101140.31;;;16.95;100.00
46087;BME280;31824;49.648;8.640;2023-06-24T00:33:05;101142.41;;;17.21;100.00
46087;BME280;31824;49.648;8.640;2023-06-24T00:36:13;101147.56;;;17.64;100.00
46087;BME280;31824;49.648;8.640;2023-06-24T00:39:19;101141.72;;;17.24;100.00
46087;BME280;31824;49.648;8.640;2023-06-24T00:42:27;101134.59;;;16.90;100.00
46087;BME280;31824;49.648;8.640;2023-06-24T00:45:29;101144.31;;;17.12;100.00
46087;BME280;31824;49.648;8.640;2023-06-24T00:48:36;101150.41;;;17.11;100.00
46087;BME280;31824;49.648;8.640;2023-06-24T00:51:40;101150.50;;;17.00;100.00
46087;BME280;31824;49.648;8.640;2023-06-24T00:54:50;101145.47;;;16.83;100.00
46087;BME280;31824;49.648;8.640;2023-06-24T00:57:55;101146.75;;;16.66;100.00
46087;BME280;31824;49.648;8.640;2023-06-24T01:00:58;101156.09;;;16.40;100.00
46087;BME280;31824;49.648;8.640;2023-06-24T01:04:02;101151.41;;;16.48;100.00
46087;BME280;31824;49.648;8.640;2023-06-24T01:07:06;101161.59;;;16.64;100.00
46087;BME280;31824;49.648;8.640;2023-06-24T01:10:11;101159.59;;;16.71;100.00
46087;BME280;31824;49.648;8.640;2023-06-24T01:13:42;101153.19;;;16.27;100.00
46087;BME280;31824;49.648;8.640;2023-06-24T01:16:54;101159.28;;;16.36;100.00
46087;BME280;31824;49.648;8.640;2023-06-24T01:20:04;101161.53;;;16.31;100.00
46087;BME280;31824;49.648;8.640;2023-06-24T01:31:21;101154.72;;;16.56;100.00
46087;BME280;31824;49.648;8.640;2023-06-24T01:34:32;101151.09;;;16.12;100.00
46087;BME280;31824;49.648;8.640;2023-06-24T01:37:44;101154.13;;;16.27;100.00
46087;BME280;31824;49.648;8.640;2023-06-24T01:40:54;101154.88;;;16.47;100.00
46087;BME280;31824;49.648;8.640;2023-06-24T01:44:01;101157.03;;;16.41;100.00
46087;BME280;31824;49.648;8.640;2023-06-24T01:47:09;101156.66;;;16.36;100.00
46087;BME280;31824;49.648;8.640;2023-06-24T01:50:14;101156.53;;;16.24;100.00
46087;BME280;31824;49.648;8.640;2023-06-24T01:53:20;101156.78;;;16.37;100.00
46087;BME280;31824;49.648;8.640;2023-06-24T01:56:25;101160.09;;;16.35;100.00
46087;BME280;31824;49.648;8.640;2023-06-24T01:59:59;101149.34;;;16.13;100.00
46087;BME280;31824;49.648;8.640;2023-06-24T02:07:26;101165.41;;;16.04;100.00
46087;BME280;31824;49.648;8.640;2023-06-24T02:10:33;101158.75;;;16.19;100.00
46087;BME280;31824;49.648;8.640;2023-06-24T02:13:39;101159.97;;;16.23;100.00
46087;BME280;31824;49.648;8.640;2023-06-24T02:16:50;101157.47;;;16.04;100.00
46087;BME280;31824;49.648;8.640;2023-06-24T02:20:00;101155.34;;;16.00;100.00
46087;BME280;31824;49.648;8.640;2023-06-24T02:23:11;101158.13;;;16.12;100.00
46087;BME280;31824;49.648;8.640;2023-06-24T02:26:16;101157.31;;;16.13;100.00
46087;BME280;31824;49.648;8.640;2023-06-24T02:29:25;101146.56;;;16.11;100.00
46087;BME280;31824;49.648;8.640;2023-06-24T02:32:31;101157.72;;;16.07;100.00
46087;BME280;31824;49.648;8.640;2023-06-24T02:35:36;101163.69;;;15.94;100.00
46087;BME280;31824;49.648;8.640;2023-06-24T02:38:42;101157.44;;;15.94;100.00
46087;BME280;31824;49.648;8.640;2023-06-24T02:41:46;101156.00;;;15.97;100.00
46087;BME280;31824;49.648;8.640;2023-06-24T02:44:55;101153.59;;;16.00;100.00
46087;BME280;31824;49.648;8.640;2023-06-24T02:48:00;101155.84;;;15.75;100.00
46087;BME280;31824;49.648;8.640;2023-06-24T02:51:10;101157.81;;;15.67;100.00
46087;BME280;31824;49.648;8.640;2023-06-24T02:54:17;101160.59;;;15.79;100.00
46087;BME280;31824;49.648;8.640;2023-06-24T02:57:57;101162.75;;;15.83;100.00
46087;BME280;31824;49.648;8.640;2023-06-24T03:01:08;101157.47;;;15.83;100.00
46087;BME280;31824;49.648;8.640;2023-06-24T03:04:26;101156.03;;;15.87;100.00
46087;BME280;31824;49.648;8.640;2023-06-24T03:07:31;101160.78;;;15.81;100.00
46087;BME280;31824;49.648;8.640;2023-06-24T03:11:04;101154.78;;;15.63;100.00
46087;BME280;31824;49.648;8.640;2023-06-24T03:14:09;101160.78;;;15.81;100.00
46087;BME280;31824;49.648;8.640;2023-06-24T03:17:18;101153.22;;;15.85;100.00
46087;BME280;31824;49.648;8.640;2023-06-24T03:20:22;101157.41;;;15.63;100.00
46087;BME280;31824;49.648;8.640;2023-06-24T03:23:31;101168.28;;;15.66;100.00
46087;BME280;31824;49.648;8.640;2023-06-24T03:27:01;101171.97;;;15.58;100.00
46087;BME280;31824;49.648;8.640;2023-06-24T03:30:14;101162.16;;;15.57;100.00
46087;BME280;31824;49.648;8.640;2023-06-24T03:33:24;101165.16;;;15.80;100.00
46087;BME280;31824;49.648;8.640;2023-06-24T03:36:29;101161.72;;;15.92;100.00
46087;BME280;31824;49.648;8.640;2023-06-24T03:39:32;101162.50;;;15.80;100.00
46087;BME280;31824;49.648;8.640;2023-06-24T03:42:37;101163.78;;;15.75;100.00
46087;BME280;31824;49.648;8.640;2023-06-24T03:45:41;101167.16;;;15.83;100.00
46087;BME280;31824;49.648;8.640;2023-06-24T03:48:49;101171.19;;;15.69;100.00
46087;BME280;31824;49.648;8.640;2023-06-24T03:51:52;101173.09;;;15.80;100.00
46087;BME280;31824;49.648;8.640;2023-06-24T03:54:57;101167.78;;;15.91;100.00
46087;BME280;31824;49.648;8.640;2023-06-24T03:58:01;101169.94;;;16.05;100.00
46087;BME280;31824;49.648;8.640;2023-06-24T04:01:04;101175.44;;;15.77;100.00
46087;BME280;31824;49.648;8.640;2023-06-24T04:04:13;101181.38;;;15.64;100.00
46087;BME280;31824;49.648;8.640;2023-06-24T04:07:17;101173.59;;;15.76;100.00
46087;BME280;31824;49.648;8.640;2023-06-24T04:10:31;101173.63;;;16.07;100.00
46087;BME280;31824;49.648;8.640;2023-06-24T04:13:36;101174.66;;;16.19;100.00
46087;BME280;31824;49.648;8.640;2023-06-24T04:16:39;101185.41;;;16.11;100.00
46087;BME280;31824;49.648;8.640;2023-06-24T04:19:42;101188.69;;;15.77;100.00
46087;BME280;31824;49.648;8.640;2023-06-24T04:22:45;101188.41;;;15.74;100.00
46087;BME280;31824;49.648;8.640;2023-06-24T04:25:48;101190.19;;;15.84;100.00
46087;BME280;31824;49.648;8.640;2023-06-24T04:28:53;101192.56;;;16.01;100.00
46087;BME280;31824;49.648;8.640;2023-06-24T04:31:55;101196.81;;;16.20;100.00
46087;BME280;31824;49.648;8.640;2023-06-24T04:34:58;101202.78;;;16.07;100.00
46087;BME280;31824;49.648;8.640;2023-06-24T04:38:01;101200.91;;;15.85;100.00
46087;BME280;31824;49.648;8.640;2023-06-24T04:41:10;101207.81;;;15.83;100.00
46087;BME280;31824;49.648;8.640;2023-06-24T04:44:14;101201.59;;;15.93;100.00
46087;BME280;31824;49.648;8.640;2023-06-24T04:47:16;101208.34;;;16.20;100.00
46087;BME280;31824;49.648;8.640;2023-06-24T04:50:23;101204.50;;;16.07;100.00
46087;BME280;31824;49.648;8.640;2023-06-24T04:53:51;101202.66;;;15.95;100.00
46087;BME280;31824;49.648;8.640;2023-06-24T04:56:53;101205.56;;;15.98;100.00
46087;BME280;31824;49.648;8.640;2023-06-24T04:59:58;101202.13;;;16.10;100.00
46087;BME280;31824;49.648;8.640;2023-06-24T05:03:01;101199.88;;;16.14;100.00
46087;BME280;31824;49.648;8.640;2023-06-24T05:06:29;101206.47;;;16.50;100.00
46087;BME280;31824;49.648;8.640;2023-06-24T05:09:32;101212.06;;;16.43;100.00
46087;BME280;31824;49.648;8.640;2023-06-24T05:12:34;101209.13;;;16.30;100.00
46087;BME280;31824;49.648;8.640;2023-06-24T05:15:41;101219.22;;;16.44;100.00
46087;BME280;31824;49.648;8.640;2023-06-24T05:18:44;101219.06;;;16.53;100.00
46087;BME280;31824;49.648;8.640;2023-06-24T05:21:48;101219.47;;;16.37;100.00
46087;BME280;31824;49.648;8.640;2023-06-24T05:24:52;101218.16;;;16.52;100.00
46087;BME280;31824;49.648;8.640;2023-06-24T05:27:58;101223.41;;;16.63;100.00
46087;BME280;31824;49.648;8.640;2023-06-24T05:31:03;101222.47;;;16.73;100.00
46087;BME280;31824;49.648;8.640;2023-06-24T05:34:07;101222.91;;;16.57;100.00
46087;BME280;31824;49.648;8.640;2023-06-24T05:37:10;101221.97;;;16.56;100.00
46087;BME280;31824;49.648;8.640;2023-06-24T05:40:12;101231.38;;;16.73;100.00
46087;BME280;31824;49.648;8.640;2023-06-24T05:43:16;101232.53;;;16.77;100.00
46087;BME280;31824;49.648;8.640;2023-06-24T05:46:20;101230.81;;;16.77;100.00
46087;BME280;31824;49.648;8.640;2023-06-24T05:49:26;101225.63;;;16.79;100.00
46087;BME280;31824;49.648;8.640;2023-06-24T05:52:34;101220.69;;;16.83;100.00
46087;BME280;31824;49.648;8.640;2023-06-24T05:55:36;101225.34;;;16.86;100.00
46087;BME280;31824;49.648;8.640;2023-06-24T05:58:39;101229.03;;;17.09;100.00
46087;BME280;31824;49.648;8.640;2023-06-24T06:01:44;101230.34;;;17.14;100.00
46087;BME280;31824;49.648;8.640;2023-06-24T06:05:12;101234.03;;;17.16;100.00
46087;BME280;31824;49.648;8.640;2023-06-24T06:08:14;101232.50;;;17.30;100.00
46087;BME280;31824;49.648;8.640;2023-06-24T06:11:17;101238.47;;;17.37;100.00
46087;BME280;31824;49.648;8.640;2023-06-24T06:14:20;101240.53;;;17.52;100.00
46087;BME280;31824;49.648;8.640;2023-06-24T06:17:28;101234.66;;;17.56;100.00
46087;BME280;31824;49.648;8.640;2023-06-24T06:20:31;101238.97;;;17.66;100.00
46087;BME280;31824;49.648;8.640;2023-06-24T06:23:33;101240.75;;;17.77;100.00
46087;BME280;31824;49.648;8.640;2023-06-24T06:26:42;101243.00;;;18.05;100.00
46087;BME280;31824;49.648;8.640;2023-06-24T06:29:45;101240.19;;;18.26;100.00
46087;BME280;31824;49.648;8.640;2023-06-24T06:32:49;101233.31;;;18.51;100.00
46087;BME280;31824;49.648;8.640;2023-06-24T06:35:53;101238.06;;;18.55;100.00
46087;BME280;31824;49.648;8.640;2023-06-24T06:38:56;101238.06;;;18.55;100.00
46087;BME280;31824;49.648;8.640;2023-06-24T06:42:01;101239.25;;;19.06;100.00
46087;BME280;31824;49.648;8.640;2023-06-24T06:45:05;101243.66;;;19.06;100.00
46087;BME280;31824;49.648;8.640;2023-06-24T06:48:09;101237.63;;;18.97;100.00
46087;BME280;31824;49.648;8.640;2023-06-24T06:51:12;101244.47;;;19.05;100.00
46087;BME280;31824;49.648;8.640;2023-06-24T06:54:41;101236.50;;;19.66;100.00
46087;BME280;31824;49.648;8.640;2023-06-24T06:57:44;101243.19;;;19.84;100.00
46087;BME280;31824;49.648;8.640;2023-06-24T07:00:48;101241.00;;;19.79;100.00
46087;BME280;31824;49.648;8.640;2023-06-24T07:03:52;101239.25;;;19.67;100.00
46087;BME280;31824;49.648;8.640;2023-06-24T07:06:55;101237.47;;;19.92;100.00
46087;BME280;31824;49.648;8.640;2023-06-24T07:09:58;101225.88;;;20.16;100.00
46087;BME280;31824;49.648;8.640;2023-06-24T07:13:01;101226.53;;;20.26;100.00
46087;BME280;31824;49.648;8.640;2023-06-24T07:16:29;101228.03;;;20.47;100.00
46087;BME280;31824;49.648;8.640;2023-06-24T07:19:34;101226.91;;;20.57;100.00
46087;BME280;31824;49.648;8.640;2023-06-24T07:22:38;101215.16;;;20.80;100.00
46087;BME280;31824;49.648;8.640;2023-06-24T07:25:41;101212.28;;;20.90;100.00
46087;BME280;31824;49.648;8.640;2023-06-24T07:28:44;101214.91;;;21.17;100.00
46087;BME280;31824;49.648;8.640;2023-06-24T07:32:05;101220.16;;;21.29;100.00
46087;BME280;31824;49.648;8.640;2023-06-24T07:35:12;101219.03;;;21.25;100.00
46087;BME280;31824;49.648;8.640;2023-06-24T07:38:42;101225.69;;;21.59;100.00
46087;BME280;31824;49.648;8.640;2023-06-24T07:41:51;101227.59;;;21.75;100.00
46087;BME280;31824;49.648;8.640;2023-06-24T07:44:53;101227.41;;;21.72;100.00
46087;BME280;31824;49.648;8.640;2023-06-24T07:48:20;101229.09;;;21.85;100.00
46087;BME280;31824;49.648;8.640;2023-06-24T07:51:24;101234.78;;;22.04;100.00
46087;BME280;31824;49.648;8.640;2023-06-24T07:58:45;101225.53;;;22.28;100.00
46087;BME280;31824;49.648;8.640;2023-06-24T08:01:49;101221.25;;;21.88;100.00
46087;BME280;31824;49.648;8.640;2023-06-24T08:04:52;101227.09;;;22.24;100.00
46087;BME280;31824;49.648;8.640;2023-06-24T08:07:57;101224.53;;;22.40;100.00
46087;BME280;31824;49.648;8.640;2023-06-24T08:11:02;101224.31;;;22.22;100.00
46087;BME280;31824;49.648;8.640;2023-06-24T08:14:07;101224.00;;;22.46;100.00
46087;BME280;31824;49.648;8.640;2023-06-24T08:17:10;101221.13;;;22.73;100.00
46087;BME280;31824;49.648;8.640;2023-06-24T08:20:13;101216.78;;;22.60;100.00
46087;BME280;31824;49.648;8.640;2023-06-24T08:23:18;101223.91;;;22.74;100.00
46087;BME280;31824;49.648;8.640;2023-06-24T08:26:20;101221.78;;;22.84;100.00
46087;BME280;31824;49.648;8.640;2023-06-24T08:29:48;101206.38;;;22.65;100.00
46087;BME280;31824;49.648;8.640;2023-06-24T08:32:51;101220.94;;;23.00;100.00
46087;BME280;31824;49.648;8.640;2023-06-24T08:35:54;101208.16;;;23.10;100.00
46087;BME280;31824;49.648;8.640;2023-06-24T08:38:58;101216.06;;;23.09;100.00
46087;BME280;31824;49.648;8.640;2023-06-24T08:42:03;101217.97;;;23.41;100.00
46087;BME280;31824;49.648;8.640;2023-06-24T08:45:06;101220.31;;;23.35;100.00
46087;BME280;31824;49.648;8.640;2023-06-24T08:48:09;101216.22;;;22.96;100.00
46087;BME280;31824;49.648;8.640;2023-06-24T08:51:15;101209.97;;;23.26;100.00
46087;BME280;31824;49.648;8.640;2023-06-24T08:54:25;101208.72;;;23.68;100.00
46087;BME280;31824;49.648;8.640;2023-06-24T08:57:29;101213.06;;;23.82;100.00
46087;BME280;31824;49.648;8.640;2023-06-24T09:00:31;101211.34;;;23.51;100.00
46087;BME280;31824;49.648;8.640;2023-06-24T09:03:36;101211.19;;;23.48;100.00
46087;BME280;31824;49.648;8.640;2023-06-24T09:06:41;101214.25;;;23.71;100.00
46087;BME280;31824;49.648;8.640;2023-06-24T09:09:47;101213.66;;;23.76;100.00
46087;BME280;31824;49.648;8.640;2023-06-24T09:12:54;101210.03;;;23.91;100.00
46087;BME280;31824;49.648;8.640;2023-06-24T09:15:58;101203.31;;;23.99;100.00
46087;BME280;31824;49.648;8.640;2023-06-24T09:19:29;101197.47;;;24.24;100.00
46087;BME280;31824;49.648;8.640;2023-06-24T09:22:32;101192.94;;;24.23;100.00
46087;BME280;31824;49.648;8.640;2023-06-24T09:25:36;101199.94;;;24.20;100.00
46087;BME280;31824;49.648;8.640;2023-06-24T09:28:40;101183.56;;;23.99;100.00
46087;BME280;31824;49.648;8.640;2023-06-24T09:31:47;101179.03;;;24.49;100.00
46087;BME280;31824;49.648;8.640;2023-06-24T09:35:18;101180.41;;;24.40;100.00
46087;BME280;31824;49.648;8.640;2023-06-24T09:38:31;101174.44;;;24.46;100.00
46087;BME280;31824;49.648;8.640;2023-06-24T09:41:48;101176.47;;;24.34;100.00
46087;BME280;31824;49.648;8.640;2023-06-24T09:45:20;101163.28;;;24.38;100.00
46087;BME280;31824;49.648;8.640;2023-06-24T09:48:26;101157.91;;;24.73;100.00
46087;BME280;31824;49.648;8.640;2023-06-24T09:51:32;101160.31;;;24.85;100.00
46087;BME280;31824;49.648;8.640;2023-06-24T09:54:42;101157.22;;;24.95;100.00
46087;BME280;31824;49.648;8.640;2023-06-24T09:57:53;101150.84;;;24.93;100.00
46087;BME280;31824;49.648;8.640;2023-06-24T10:01:02;101150.63;;;25.06;100.00
46087;BME280;31824;49.648;8.640;2023-06-24T10:04:06;101147.81;;;25.41;100.00
46087;BME280;31824;49.648;8.640;2023-06-24T10:07:10;101139.19;;;25.30;100.00
46087;BME280;31824;49.648;8.640;2023-06-24T10:10:14;101136.63;;;25.14;100.00
46087;BME280;31824;49.648;8.640;2023-06-24T10:13:18;101127.91;;;25.37;100.00
46087;BME280;31824;49.648;8.640;2023-06-24T10:16:21;101124.31;;;25.37;100.00
46087;BME280;31824;49.648;8.640;2023-06-24T10:19:24;101124.31;;;25.76;100.00
46087;BME280;31824;49.648;8.640;2023-06-24T10:22:30;101122.34;;;25.72;100.00
46087;BME280;31824;49.648;8.640;2023-06-24T10:25:36;101118.41;;;26.04;100.00
46087;BME280;31824;49.648;8.640;2023-06-24T10:29:12;101113.81;;;25.63;100.00
46087;BME280;31824;49.648;8.640;2023-06-24T10:32:18;101109.16;;;25.58;100.00
46087;BME280;31824;49.648;8.640;2023-06-24T10:35:26;101098.50;;;25.81;100.00
46087;BME280;31824;49.648;8.640;2023-06-24T10:38:32;101103.88;;;26.01;100.00
46087;BME280;31824;49.648;8.640;2023-06-24T10:41:35;101103.72;;;26.17;100.00
46087;BME280;31824;49.648;8.640;2023-06-24T10:44:47;101094.16;;;25.64;100.00
46087;BME280;31824;49.648;8.640;2023-06-24T10:47:55;101091.78;;;25.91;100.00
46087;BME280;31824;49.648;8.640;2023-06-24T10:51:03;101091.50;;;25.85;100.00
46087;BME280;31824;49.648;8.640;2023-06-24T10:54:06;101083.94;;;25.76;100.00
46087;BME280;31824;49.648;8.640;2023-06-24T10:57:11;101087.59;;;25.78;100.00
46087;BME280;31824;49.648;8.640;2023-06-24T11:00:16;101068.09;;;25.63;100.00
46087;BME280;31824;49.648;8.640;2023-06-24T11:03:22;101076.25;;;25.85;100.00
46087;BME280;31824;49.648;8.640;2023-06-24T11:06:25;101069.22;;;26.29;100.00
46087;BME280;31824;49.648;8.640;2023-06-24T11:09:28;101073.34;;;26.63;100.00
46087;BME280;31824;49.648;8.640;2023-06-24T11:12:31;101068.41;;;26.53;100.00
46087;BME280;31824;49.648;8.640;2023-06-24T11:15:38;101054.41;;;26.62;100.00
46087;BME280;31824;49.648;8.640;2023-06-24T11:18:45;101054.19;;;26.78;100.00
46087;BME280;31824;49.648;8.640;2023-06-24T11:21:48;101052.09;;;27.39;100.00
46087;BME280;31824;49.648;8.640;2023-06-24T11:24:51;101044.53;;;27.30;100.00
46087;BME280;31824;49.648;8.640;2023-06-24T11:28:19;101043.16;;;27.40;100.00
46087;BME280;31824;49.648;8.640;2023-06-24T11:31:29;101041.47;;;27.44;100.00
46087;BME280;31824;49.648;8.640;2023-06-24T11:35:00;101044.19;;;27.70;100.00
46087;BME280;31824;49.648;8.640;2023-06-24T11:38:04;101025.31;;;27.45;100.00
46087;BME280;31824;49.648;8.640;2023-06-24T11:41:08;101042.91;;;27.84;100.00
46087;BME280;31824;49.648;8.640;2023-06-24T11:44:13;101036.47;;;27.80;100.00
46087;BME280;31824;49.648;8.640;2023-06-24T11:47:23;101032.22;;;27.87;100.00
46087;BME280;31824;49.648;8.640;2023-06-24T11:50:26;101034.84;;;28.10;100.00
46087;BME280;31824;49.648;8.640;2023-06-24T11:53:30;101029.59;;;28.15;100.00
46087;BME280;31824;49.648;8.640;2023-06-24T11:56:35;101022.28;;;27.36;100.00
46087;BME280;31824;49.648;8.640;2023-06-24T11:59:42;101022.41;;;27.17;100.00
46087;BME280;31824;49.648;8.640;2023-06-24T12:02:49;101027.81;;;27.39;100.00
46087;BME280;31824;49.648;8.640;2023-06-24T12:05:53;101020.28;;;27.80;100.00
46087;BME280;31824;49.648;8.640;2023-06-24T12:09:00;101023.75;;;28.28;100.00
46087;BME280;31824;49.648;8.640;2023-06-24T12:12:05;101021.72;;;28.21;100.00
46087;BME280;31824;49.648;8.640;2023-06-24T12:15:10;101018.81;;;27.90;100.00
46087;BME280;31824;49.648;8.640;2023-06-24T12:21:09;101011.28;;;27.07;100.00
46087;BME280;31824;49.648;8.640;2023-06-24T12:24:13;101005.53;;;26.98;100.00
46087;BME280;31824;49.648;8.640;2023-06-24T12:27:20;100996.44;;;27.19;100.00
46087;BME280;31824;49.648;8.640;2023-06-24T12:30:24;100997.16;;;26.90;100.00
46087;BME280;31824;49.648;8.640;2023-06-24T12:33:27;100994.66;;;26.72;100.00
46087;BME280;31824;49.648;8.640;2023-06-24T12:36:31;100988.34;;;27.19;100.00
46087;BME280;31824;49.648;8.640;2023-06-24T12:39:34;100997.44;;;28.22;100.00
46087;BME280;31824;49.648;8.640;2023-06-24T12:42:37;100986.16;;;28.36;100.00
46087;BME280;31824;49.648;8.640;2023-06-24T12:45:39;100989.78;;;28.36;100.00
46087;BME280;31824;49.648;8.640;2023-06-24T12:49:10;100979.69;;;28.30;100.00
46087;BME280;31824;49.648;8.640;2023-06-24T12:52:39;100980.69;;;28.61;100.00
46087;BME280;31824;49.648;8.640;2023-06-24T12:55:42;100969.88;;;28.61;100.00
46087;BME280;31824;49.648;8.640;2023-06-24T12:59:11;100963.00;;;28.44;100.00
46087;BME280;31824;49.648;8.640;2023-06-24T13:02:13;100966.47;;;28.67;100.00
46087;BME280;31824;49.648;8.640;2023-06-24T13:05:16;100966.81;;;29.10;100.00
46087;BME280;31824;49.648;8.640;2023-06-24T13:08:25;100965.72;;;28.73;100.00
46087;BME280;31824;49.648;8.640;2023-06-24T13:11:28;100960.53;;;28.52;100.00
46087;BME280;31824;49.648;8.640;2023-06-24T13:14:31;100970.22;;;28.45;100.00
46087;BME280;31824;49.648;8.640;2023-06-24T13:18:25;100964.31;;;29.16;100.00
46087;BME280;31824;49.648;8.640;2023-06-24T13:21:32;100961.50;;;28.54;100.00
46087;BME280;31824;49.648;8.640;2023-06-24T13:24:36;100958.28;;;28.09;100.00
46087;BME280;31824;49.648;8.640;2023-06-24T13:27:38;100951.81;;;27.78;100.00
46087;BME280;31824;49.648;8.640;2023-06-24T13:30:42;100963.53;;;27.79;100.00
46087;BME280;31824;49.648;8.640;2023-06-24T13:33:45;100956.13;;;27.99;100.00
46087;BME280;31824;49.648;8.640;2023-06-24T13:36:48;100948.00;;;27.72;100.00
46087;BME280;31824;49.648;8.640;2023-06-24T13:39:57;100952.25;;;27.91;100.00
46087;BME280;31824;49.648;8.640;2023-06-24T13:43:01;100939.66;;;28.19;100.00
46087;BME280;31824;49.648;8.640;2023-06-24T13:46:31;100938.44;;;28.65;100.00
46087;BME280;31824;49.648;8.640;2023-06-24T13:49:34;100939.31;;;28.64;100.00
46087;BME280;31824;49.648;8.640;2023-06-24T13:52:38;100943.03;;;28.39;100.00
46087;BME280;31824;49.648;8.640;2023-06-24T13:55:43;100936.94;;;27.91;100.00
46087;BME280;31824;49.648;8.640;2023-06-24T13:58:47;100936.63;;;28.08;100.00
46087;BME280;31824;49.648;8.640;2023-06-24T14:01:51;100926.78;;;28.66;100.00
46087;BME280;31824;49.648;8.640;2023-06-24T14:04:57;100933.13;;;28.99;100.00
46087;BME280;31824;49.648;8.640;2023-06-24T14:08:24;100930.34;;;28.95;100.00
46087;BME280;31824;49.648;8.640;2023-06-24T14:11:29;100926.06;;;29.04;100.00
46087;BME280;31824;49.648;8.640;2023-06-24T14:14:34;100919.44;;;28.33;100.00
46087;BME280;31824;49.648;8.640;2023-06-24T14:18:05;100919.47;;;28.94;100.00
46087;BME280;31824;49.648;8.640;2023-06-24T14:21:08;100915.38;;;29.08;100.00
46087;BME280;31824;49.648;8.640;2023-06-24T14:24:10;100904.00;;;29.20;100.00
46087;BME280;31824;49.648;8.640;2023-06-24T14:27:19;100910.69;;;29.68;100.00
46087;BME280;31824;49.648;8.640;2023-06-24T14:30:22;100902.38;;;29.60;100.00
46087;BME280;31824;49.648;8.640;2023-06-24T14:33:25;100900.38;;;29.53;100.00
46087;BME280;31824;49.648;8.640;2023-06-24T14:36:27;100897.78;;;29.58;100.00
46087;BME280;31824;49.648;8.640;2023-06-24T14:39:30;100880.41;;;29.85;100.00
46087;BME280;31824;49.648;8.640;2023-06-24T14:42:35;100880.81;;;30.38;100.00
46087;BME280;31824;49.648;8.640;2023-06-24T14:45:44;100884.44;;;30.40;100.00
46087;BME280;31824;49.648;8.640;2023-06-24T14:48:47;100871.84;;;30.03;100.00
46087;BME280;31824;49.648;8.640;2023-06-24T14:51:51;100864.75;;;30.08;100.00
46087;BME280;31824;49.648;8.640;2023-06-24T14:54:58;100873.94;;;30.14;100.00
46087;BME280;31824;49.648;8.640;2023-06-24T14:58:02;100872.00;;;29.74;100.00
46087;BME280;31824;49.648;8.640;2023-06-24T15:01:05;100871.44;;;29.86;100.00
46087;BME280;31824;49.648;8.640;2023-06-24T15:04:12;100870.84;;;29.27;100.00
46087;BME280;31824;49.648;8.640;2023-06-24T15:07:17;100865.75;;;29.76;100.00
46087;BME280;31824;49.648;8.640;2023-06-24T15:10:27;100857.31;;;29.99;100.00
46087;BME280;31824;49.648;8.640;2023-06-24T15:13:33;100868.03;;;29.94;100.00
46087;BME280;31824;49.648;8.640;2023-06-24T15:16:35;100853.25;;;29.81;100.00
46087;BME280;31824;49.648;8.640;2023-06-24T15:19:41;100859.03;;;29.95;100.00
46087;BME280;31824;49.648;8.640;2023-06-24T15:22:44;100855.22;;;30.25;100.00
46087;BME280;31824;49.648;8.640;2023-06-24T15:25:49;100845.00;;;30.13;100.00
46087;BME280;31824;49.648;8.640;2023-06-24T15:28:57;100841.69;;;29.87;100.00
46087;BME280;31824;49.648;8.640;2023-06-24T15:32:01;100844.50;;;29.55;100.00
46087;BME280;31824;49.648;8.640;2023-06-24T15:35:09;100839.53;;;29.74;100.00
46087;BME280;31824;49.648;8.640;2023-06-24T15:38:13;100838.56;;;30.48;100.00
46087;BME280;31824;49.648;8.640;2023-06-24T15:41:16;100837.00;;;30.20;100.00
46087;BME280;31824;49.648;8.640;2023-06-24T15:44:27;100829.50;;;30.08;100.00
46087;BME280;31824;49.648;8.640;2023-06-24T15:47:29;100842.56;;;30.26;100.00
46087;BME280;31824;49.648;8.640;2023-06-24T15:50:32;100830.88;;;30.28;100.00
46087;BME280;31824;49.648;8.640;2023-06-24T15:53:35;100823.72;;;30.32;100.00
46087;BME280;31824;49.648;8.640;2023-06-24T15:56:38;100823.41;;;30.17;100.00
46087;BME280;31824;49.648;8.640;2023-06-24T15:59:44;100823.78;;;30.35;100.00
46087;BME280;31824;49.648;8.640;2023-06-24T16:02:47;100824.72;;;30.36;100.00
46087;BME280;31824;49.648;8.640;2023-06-24T16:05:58;100820.34;;;30.42;100.00
46087;BME280;31824;49.648;8.640;2023-06-24T16:09:07;100810.78;;;30.19;100.00
46087;BME280;31824;49.648;8.640;2023-06-24T16:12:21;100816.91;;;30.50;100.00
46087;BME280;31824;49.648;8.640;2023-06-24T16:15:31;100811.59;;;30.56;100.00
46087;BME280;31824;49.648;8.640;2023-06-24T16:18:37;100818.16;;;30.66;100.00
46087;BME280;31824;49.648;8.640;2023-06-24T16:21:40;100803.09;;;30.39;100.00
46087;BME280;31824;49.648;8.640;2023-06-24T16:25:01;100807.97;;;30.55;100.00
46087;BME280;31824;49.648;8.640;2023-06-24T16:28:04;100808.50;;;30.37;100.00